sensor_id;sensor_type;location;lat;lon;timestamp;pressure;altitude;pressure_sealevel;temperature;humidity
39949;BME280;29070;48.102;-1.652;2022-11-20T00:04:43;101210.88;;;6.41;78.92
39949;BME280;29070;48.102;-1.652;2022-11-20T00:09:43;101209.44;;;6.46;78.81
39949;BME280;29070;48.102;-1.652;2022-11-20T00:14:43;101210.75;;;6.51;79.06
39949;BME280;29070;48.102;-1.652;2022-11-20T00:19:43;101207.69;;;6.55;79.36
39949;BME280;29070;48.102;-1.652;2022-11-20T00:24:44;101206.25;;;6.61;79.11
39949;BME280;29070;48.102;-1.652;2022-11-20T00:29:44;101186.69;;;6.65;79.21
39949;BME280;29070;48.102;-1.652;2022-11-20T00:34:45;101197.47;;;6.70;79.47
39949;BME280;29070;48.102;-1.652;2022-11-20T00:39:45;101194.25;;;6.76;79.49
39949;BME280;29070;48.102;-1.652;2022-11-20T00:44:45;101193.63;;;6.82;79.55
39949;BME280;29070;48.102;-1.652;2022-11-20T00:49:45;101199.97;;;6.88;79.53
39949;BME280;29070;48.102;-1.652;2022-11-20T00:54:46;101191.53;;;6.94;79.59
39949;BME280;29070;48.102;-1.652;2022-11-20T00:59:46;101190.06;;;7.00;79.47
39949;BME280;29070;48.102;-1.652;2022-11-20T01:04:46;101179.81;;;7.06;80.00
39949;BME280;29070;48.102;-1.652;2022-11-20T01:09:47;101185.19;;;7.13;79.99
39949;BME280;29070;48.102;-1.652;2022-11-20T01:14:47;101176.09;;;7.17;79.98
39949;BME280;29070;48.102;-1.652;2022-11-20T01:19:49;101164.19;;;7.23;79.72
39949;BME280;29070;48.102;-1.652;2022-11-20T01:24:50;101168.25;;;7.25;80.07
39949;BME280;29070;48.102;-1.652;2022-11-20T01:29:50;101163.34;;;7.31;80.27
39949;BME280;29070;48.102;-1.652;2022-11-20T01:34:51;101153.56;;;7.33;80.00
39949;BME280;29070;48.102;-1.652;2022-11-20T01:39:51;101136.78;;;7.35;79.99
39949;BME280;29070;48.102;-1.652;2022-11-20T01:44:56;101130.06;;;7.41;80.11
39949;BME280;29070;48.102;-1.652;2022-11-20T01:50:01;101120.91;;;7.45;80.36
39949;BME280;29070;48.102;-1.652;2022-11-20T01:55:13;101121.56;;;7.47;80.35
39949;BME280;29070;48.102;-1.652;2022-11-20T02:00:17;101111.44;;;7.52;80.49
39949;BME280;29070;48.102;-1.652;2022-11-20T02:05:35;101116.34;;;7.55;80.45
39949;BME280;29070;48.102;-1.652;2022-11-20T02:10:37;101107.19;;;7.59;80.66
39949;BME280;29070;48.102;-1.652;2022-11-20T02:15:37;101100.50;;;7.65;80.76
39949;BME280;29070;48.102;-1.652;2022-11-20T02:20:39;101088.91;;;7.68;80.80
39949;BME280;29070;48.102;-1.652;2022-11-20T02:25:40;101069.28;;;7.72;81.10
39949;BME280;29070;48.102;-1.652;2022-11-20T02:30:42;101072.56;;;7.74;80.84
39949;BME280;29070;48.102;-1.652;2022-11-20T02:35:45;101055.38;;;7.79;81.18
39949;BME280;29070;48.102;-1.652;2022-11-20T02:40:45;101057.50;;;7.84;81.51
39949;BME280;29070;48.102;-1.652;2022-11-20T02:45:46;101045.06;;;7.86;81.77
39949;BME280;29070;48.102;-1.652;2022-11-20T02:50:46;101042.78;;;7.91;81.49
39949;BME280;29070;48.102;-1.652;2022-11-20T02:55:46;101036.56;;;7.92;81.44
39949;BME280;29070;48.102;-1.652;2022-11-20T03:00:47;101037.22;;;7.94;81.57
39949;BME280;29070;48.102;-1.652;2022-11-20T03:05:47;101008.94;;;7.98;81.69
39949;BME280;29070;48.102;-1.652;2022-11-20T03:10:47;100998.31;;;7.99;81.89
39949;BME280;29070;48.102;-1.652;2022-11-20T03:15:48;100978.84;;;8.02;82.05
39949;BME280;29070;48.102;-1.652;2022-11-20T03:20:48;100971.81;;;8.02;81.70
39949;BME280;29070;48.102;-1.652;2022-11-20T03:25:49;100963.00;;;8.04;82.15
39949;BME280;29070;48.102;-1.652;2022-11-20T03:30:49;100936.84;;;8.04;82.23
39949;BME280;29070;48.102;-1.652;2022-11-20T03:35:49;100934.06;;;8.05;82.33
39949;BME280;29070;48.102;-1.652;2022-11-20T03:40:50;100930.94;;;8.10;82.12
39949;BME280;29070;48.102;-1.652;2022-11-20T03:45:51;100906.41;;;8.11;82.37
39949;BME280;29070;48.102;-1.652;2022-11-20T03:50:52;100900.03;;;8.13;82.37
39949;BME280;29070;48.102;-1.652;2022-11-20T03:55:53;100895.25;;;8.17;82.65
39949;BME280;29070;48.102;-1.652;2022-11-20T04:00:53;100897.69;;;8.18;82.65
39949;BME280;29070;48.102;-1.652;2022-11-20T04:05:54;100899.97;;;8.21;82.68
39949;BME280;29070;48.102;-1.652;2022-11-20T04:10:54;100906.47;;;8.26;82.69
39949;BME280;29070;48.102;-1.652;2022-11-20T04:15:57;100896.94;;;8.33;82.93
39949;BME280;29070;48.102;-1.652;2022-11-20T04:20:58;100896.44;;;8.37;83.02
39949;BME280;29070;48.102;-1.652;2022-11-20T04:31:09;100886.56;;;8.48;82.86
39949;BME280;29070;48.102;-1.652;2022-11-20T04:36:21;100897.50;;;8.51;83.38
39949;BME280;29070;48.102;-1.652;2022-11-20T04:41:23;100892.34;;;8.58;83.35
39949;BME280;29070;48.102;-1.652;2022-11-20T04:46:25;100879.09;;;8.59;83.22
39949;BME280;29070;48.102;-1.652;2022-11-20T04:51:27;100868.28;;;8.63;83.20
39949;BME280;29070;48.102;-1.652;2022-11-20T04:56:27;100857.19;;;8.61;83.31
39949;BME280;29070;48.102;-1.652;2022-11-20T05:01:27;100857.81;;;8.63;83.37
39949;BME280;29070;48.102;-1.652;2022-11-20T05:06:28;100847.16;;;8.64;83.60
39949;BME280;29070;48.102;-1.652;2022-11-20T05:11:28;100842.22;;;8.69;83.53
39949;BME280;29070;48.102;-1.652;2022-11-20T05:16:29;100842.00;;;8.71;83.61
39949;BME280;29070;48.102;-1.652;2022-11-20T05:21:30;100840.50;;;8.76;83.59
39949;BME280;29070;48.102;-1.652;2022-11-20T05:26:31;100832.28;;;8.80;83.52
39949;BME280;29070;48.102;-1.652;2022-11-20T05:31:32;100820.47;;;8.84;83.93
39949;BME280;29070;48.102;-1.652;2022-11-20T05:36:32;100807.84;;;8.87;83.71
39949;BME280;29070;48.102;-1.652;2022-11-20T05:41:33;100806.47;;;8.91;83.84
39949;BME280;29070;48.102;-1.652;2022-11-20T05:46:33;100801.06;;;8.93;83.93
39949;BME280;29070;48.102;-1.652;2022-11-20T05:51:34;100800.69;;;8.96;84.04
39949;BME280;29070;48.102;-1.652;2022-11-20T05:56:34;100796.72;;;9.00;84.28
39949;BME280;29070;48.102;-1.652;2022-11-20T06:01:35;100814.13;;;9.08;84.05
39949;BME280;29070;48.102;-1.652;2022-11-20T06:06:36;100842.56;;;9.11;84.13
39949;BME280;29070;48.102;-1.652;2022-11-20T06:11:36;100927.28;;;9.03;84.78
39949;BME280;29070;48.102;-1.652;2022-11-20T06:16:36;100944.31;;;8.99;85.14
39949;BME280;29070;48.102;-1.652;2022-11-20T06:21:37;100924.44;;;9.05;85.12
39949;BME280;29070;48.102;-1.652;2022-11-20T06:26:37;100918.31;;;9.12;84.88
39949;BME280;29070;48.102;-1.652;2022-11-20T06:31:37;100917.41;;;9.20;84.87
39949;BME280;29070;48.102;-1.652;2022-11-20T06:36:38;100937.63;;;9.26;84.83
39949;BME280;29070;48.102;-1.652;2022-11-20T06:41:38;100949.22;;;9.32;85.29
39949;BME280;29070;48.102;-1.652;2022-11-20T06:46:39;100920.84;;;9.35;84.95
39949;BME280;29070;48.102;-1.652;2022-11-20T06:51:39;100893.47;;;9.38;85.01
39949;BME280;29070;48.102;-1.652;2022-11-20T06:56:40;100887.88;;;9.41;85.25
39949;BME280;29070;48.102;-1.652;2022-11-20T07:01:40;100902.59;;;9.42;85.11
39949;BME280;29070;48.102;-1.652;2022-11-20T07:06:41;100908.00;;;9.41;84.99
39949;BME280;29070;48.102;-1.652;2022-11-20T07:11:41;100909.81;;;9.40;84.67
39949;BME280;29070;48.102;-1.652;2022-11-20T07:16:41;100896.91;;;9.39;84.88
39949;BME280;29070;48.102;-1.652;2022-11-20T07:21:42;100898.34;;;9.41;84.90
39949;BME280;29070;48.102;-1.652;2022-11-20T07:26:42;100897.72;;;9.39;84.89
39949;BME280;29070;48.102;-1.652;2022-11-20T07:31:42;100903.94;;;9.38;84.98
39949;BME280;29070;48.102;-1.652;2022-11-20T07:36:43;100891.66;;;9.39;84.95
39949;BME280;29070;48.102;-1.652;2022-11-20T07:41:43;100885.00;;;9.36;84.97
39949;BME280;29070;48.102;-1.652;2022-11-20T07:46:44;100891.38;;;9.33;84.70
39949;BME280;29070;48.102;-1.652;2022-11-20T07:51:44;100901.88;;;9.33;85.06
39949;BME280;29070;48.102;-1.652;2022-11-20T07:56:44;100905.66;;;9.31;85.02
39949;BME280;29070;48.102;-1.652;2022-11-20T08:01:45;100919.75;;;9.30;84.79
39949;BME280;29070;48.102;-1.652;2022-11-20T08:06:45;100929.59;;;9.28;85.01
39949;BME280;29070;48.102;-1.652;2022-11-20T08:11:45;100938.47;;;9.27;84.95
39949;BME280;29070;48.102;-1.652;2022-11-20T08:17:04;100952.09;;;9.22;85.15
39949;BME280;29070;48.102;-1.652;2022-11-20T08:22:04;100959.50;;;9.19;84.88
39949;BME280;29070;48.102;-1.652;2022-11-20T08:27:05;100967.69;;;9.15;84.97
39949;BME280;29070;48.102;-1.652;2022-11-20T08:32:05;100975.75;;;9.14;84.93
39949;BME280;29070;48.102;-1.652;2022-11-20T08:37:05;100980.63;;;9.17;85.24
39949;BME280;29070;48.102;-1.652;2022-11-20T08:42:09;100963.59;;;9.21;85.45
39949;BME280;29070;48.102;-1.652;2022-11-20T08:47:09;100958.41;;;9.28;85.53
39949;BME280;29070;48.102;-1.652;2022-11-20T08:52:10;100977.66;;;9.35;85.64
39949;BME280;29070;48.102;-1.652;2022-11-20T08:57:10;100994.66;;;9.39;85.94
39949;BME280;29070;48.102;-1.652;2022-11-20T09:02:10;101008.00;;;9.44;86.39
39949;BME280;29070;48.102;-1.652;2022-11-20T09:07:12;101017.78;;;9.50;86.24
39949;BME280;29070;48.102;-1.652;2022-11-20T09:12:12;101028.53;;;9.56;86.25
39949;BME280;29070;48.102;-1.652;2022-11-20T09:17:12;101037.66;;;9.60;86.17
39949;BME280;29070;48.102;-1.652;2022-11-20T09:22:14;101055.94;;;9.68;86.58
39949;BME280;29070;48.102;-1.652;2022-11-20T09:27:15;101071.72;;;9.74;86.55
39949;BME280;29070;48.102;-1.652;2022-11-20T09:32:20;101076.88;;;9.83;86.74
39949;BME280;29070;48.102;-1.652;2022-11-20T09:37:21;101092.09;;;9.87;86.68
39949;BME280;29070;48.102;-1.652;2022-11-20T09:53:16;101097.31;;;10.02;86.56
39949;BME280;29070;48.102;-1.652;2022-11-20T10:03:45;101109.97;;;10.28;86.70
39949;BME280;29070;48.102;-1.652;2022-11-20T10:09:40;101114.41;;;10.43;86.51
39949;BME280;29070;48.102;-1.652;2022-11-20T10:14:24;101109.41;;;10.48;86.32
39949;BME280;29070;48.102;-1.652;2022-11-20T10:25:18;101124.69;;;10.59;85.94
39949;BME280;29070;48.102;-1.652;2022-11-20T10:30:20;101137.69;;;10.67;85.66
39949;BME280;29070;48.102;-1.652;2022-11-20T10:35:41;101135.94;;;10.75;85.71
39949;BME280;29070;48.102;-1.652;2022-11-20T10:40:46;101140.09;;;10.84;85.64
39949;BME280;29070;48.102;-1.652;2022-11-20T10:45:53;101133.34;;;10.96;85.62
39949;BME280;29070;48.102;-1.652;2022-11-20T10:56:38;101127.88;;;11.13;85.34
39949;BME280;29070;48.102;-1.652;2022-11-20T11:01:41;101134.34;;;11.17;85.02
39949;BME280;29070;48.102;-1.652;2022-11-20T11:06:47;101165.97;;;11.23;85.09
39949;BME280;29070;48.102;-1.652;2022-11-20T11:11:49;101161.56;;;11.31;84.97
39949;BME280;29070;48.102;-1.652;2022-11-20T11:21:55;101150.78;;;11.47;84.16
39949;BME280;29070;48.102;-1.652;2022-11-20T11:27:02;101150.44;;;11.57;84.25
39949;BME280;29070;48.102;-1.652;2022-11-20T11:37:13;101134.84;;;11.83;83.72
39949;BME280;29070;48.102;-1.652;2022-11-20T11:42:19;101127.47;;;11.94;83.88
39949;BME280;29070;48.102;-1.652;2022-11-20T11:47:53;101112.69;;;11.93;83.41
39949;BME280;29070;48.102;-1.652;2022-11-20T11:58:20;101112.09;;;11.97;83.15
39949;BME280;29070;48.102;-1.652;2022-11-20T12:03:35;101127.31;;;12.02;82.83
39949;BME280;29070;48.102;-1.652;2022-11-20T12:18:58;101147.59;;;12.08;81.69
39949;BME280;29070;48.102;-1.652;2022-11-20T12:29:22;101136.28;;;12.14;81.10
39949;BME280;29070;48.102;-1.652;2022-11-20T12:34:40;101150.34;;;12.35;80.93
39949;BME280;29070;48.102;-1.652;2022-11-20T12:39:48;101155.47;;;12.43;79.42
39949;BME280;29070;48.102;-1.652;2022-11-20T12:50:36;101158.56;;;12.67;80.17
39949;BME280;29070;48.102;-1.652;2022-11-20T12:56:01;101151.94;;;12.84;79.65
39949;BME280;29070;48.102;-1.652;2022-11-20T13:01:30;101142.84;;;12.93;78.69
39949;BME280;29070;48.102;-1.652;2022-11-20T13:06:44;101151.97;;;12.97;78.36
39949;BME280;29070;48.102;-1.652;2022-11-20T13:17:05;101138.56;;;12.92;77.97
39949;BME280;29070;48.102;-1.652;2022-11-20T13:22:09;101143.47;;;13.09;78.33
39949;BME280;29070;48.102;-1.652;2022-11-20T13:42:27;101166.22;;;13.37;75.95
39949;BME280;29070;48.102;-1.652;2022-11-20T13:47:28;101166.19;;;13.30;74.84
39949;BME280;29070;48.102;-1.652;2022-11-20T14:03:18;101179.56;;;13.28;73.59
39949;BME280;29070;48.102;-1.652;2022-11-20T14:08:28;101170.44;;;13.24;74.16
39949;BME280;29070;48.102;-1.652;2022-11-20T14:13:31;101171.84;;;13.07;73.68
39949;BME280;29070;48.102;-1.652;2022-11-20T14:18:32;101164.53;;;12.95;73.55
39949;BME280;29070;48.102;-1.652;2022-11-20T14:23:32;101168.78;;;12.90;73.73
39949;BME280;29070;48.102;-1.652;2022-11-20T14:28:32;101161.06;;;12.88;73.83
39949;BME280;29070;48.102;-1.652;2022-11-20T14:33:33;101169.13;;;12.80;73.51
39949;BME280;29070;48.102;-1.652;2022-11-20T14:38:34;101171.97;;;12.78;73.41
39949;BME280;29070;48.102;-1.652;2022-11-20T14:43:34;101177.47;;;12.77;73.14
39949;BME280;29070;48.102;-1.652;2022-11-20T14:53:45;101181.47;;;12.73;73.21
39949;BME280;29070;48.102;-1.652;2022-11-20T14:58:55;101179.25;;;12.70;72.73
39949;BME280;29070;48.102;-1.652;2022-11-20T15:04:05;101166.88;;;12.64;72.67
39949;BME280;29070;48.102;-1.652;2022-11-20T15:09:13;101172.28;;;12.55;72.83
39949;BME280;29070;48.102;-1.652;2022-11-20T15:14:14;101179.34;;;12.48;72.85
39949;BME280;29070;48.102;-1.652;2022-11-20T15:19:22;101169.19;;;12.38;72.53
39949;BME280;29070;48.102;-1.652;2022-11-20T15:24:23;101169.16;;;12.32;72.72
39949;BME280;29070;48.102;-1.652;2022-11-20T15:29:24;101158.19;;;12.22;72.59
39949;BME280;29070;48.102;-1.652;2022-11-20T15:34:26;101160.16;;;12.13;72.53
39949;BME280;29070;48.102;-1.652;2022-11-20T15:39:27;101166.78;;;12.02;72.56
39949;BME280;29070;48.102;-1.652;2022-11-20T15:44:27;101178.88;;;11.96;72.63
39949;BME280;29070;48.102;-1.652;2022-11-20T15:49:27;101172.50;;;11.84;72.58
39949;BME280;29070;48.102;-1.652;2022-11-20T15:54:28;101175.28;;;11.76;72.52
39949;BME280;29070;48.102;-1.652;2022-11-20T15:59:28;101193.38;;;11.64;72.65
39949;BME280;29070;48.102;-1.652;2022-11-20T16:04:29;101213.09;;;11.53;72.53
39949;BME280;29070;48.102;-1.652;2022-11-20T16:09:29;101216.69;;;11.45;72.92
39949;BME280;29070;48.102;-1.652;2022-11-20T16:14:29;101217.06;;;11.42;73.13
39949;BME280;29070;48.102;-1.652;2022-11-20T16:19:48;101220.44;;;11.36;73.20
39949;BME280;29070;48.102;-1.652;2022-11-20T16:24:49;101214.13;;;11.31;73.06
39949;BME280;29070;48.102;-1.652;2022-11-20T16:29:51;101225.75;;;11.21;73.18
39949;BME280;29070;48.102;-1.652;2022-11-20T16:34:51;101217.44;;;11.18;73.18
39949;BME280;29070;48.102;-1.652;2022-11-20T16:39:52;101208.69;;;11.11;73.33
39949;BME280;29070;48.102;-1.652;2022-11-20T16:44:52;101208.16;;;11.00;73.39
39949;BME280;29070;48.102;-1.652;2022-11-20T16:49:52;101208.44;;;10.91;73.27
39949;BME280;29070;48.102;-1.652;2022-11-20T16:54:53;101203.84;;;10.78;73.26
39949;BME280;29070;48.102;-1.652;2022-11-20T16:59:53;101208.22;;;10.71;73.33
39949;BME280;29070;48.102;-1.652;2022-11-20T17:04:54;101195.22;;;10.62;73.65
39949;BME280;29070;48.102;-1.652;2022-11-20T17:09:54;101209.84;;;10.57;73.59
39949;BME280;29070;48.102;-1.652;2022-11-20T17:14:55;101221.09;;;10.51;74.03
39949;BME280;29070;48.102;-1.652;2022-11-20T17:19:55;101232.13;;;10.46;73.89
39949;BME280;29070;48.102;-1.652;2022-11-20T17:24:55;101233.66;;;10.40;73.96
39949;BME280;29070;48.102;-1.652;2022-11-20T17:29:56;101237.81;;;10.35;73.92
39949;BME280;29070;48.102;-1.652;2022-11-20T17:34:58;101236.72;;;10.29;73.81
39949;BME280;29070;48.102;-1.652;2022-11-20T17:39:58;101239.06;;;10.24;73.87
39949;BME280;29070;48.102;-1.652;2022-11-20T17:44:59;101242.59;;;10.16;73.88
39949;BME280;29070;48.102;-1.652;2022-11-20T17:49:59;101229.09;;;10.04;74.00
39949;BME280;29070;48.102;-1.652;2022-11-20T17:54:59;101238.66;;;9.97;74.05
39949;BME280;29070;48.102;-1.652;2022-11-20T18:00:00;101248.22;;;9.90;74.00
39949;BME280;29070;48.102;-1.652;2022-11-20T18:05:00;101240.63;;;9.80;74.10
39949;BME280;29070;48.102;-1.652;2022-11-20T18:10:01;101235.59;;;9.70;74.20
39949;BME280;29070;48.102;-1.652;2022-11-20T18:15:01;101232.06;;;9.63;74.14
39949;BME280;29070;48.102;-1.652;2022-11-20T18:20:02;101219.66;;;9.57;74.21
39949;BME280;29070;48.102;-1.652;2022-11-20T18:25:03;101225.75;;;9.49;74.34
39949;BME280;29070;48.102;-1.652;2022-11-20T18:30:03;101229.28;;;9.42;74.88
39949;BME280;29070;48.102;-1.652;2022-11-20T18:35:06;101239.28;;;9.38;74.81
39949;BME280;29070;48.102;-1.652;2022-11-20T18:40:07;101220.00;;;9.31;74.64
39949;BME280;29070;48.102;-1.652;2022-11-20T18:45:08;101226.59;;;9.27;74.83
39949;BME280;29070;48.102;-1.652;2022-11-20T18:50:09;101222.88;;;9.21;75.11
39949;BME280;29070;48.102;-1.652;2022-11-20T18:55:09;101226.47;;;9.20;75.21
39949;BME280;29070;48.102;-1.652;2022-11-20T19:00:11;101228.44;;;9.18;75.71
39949;BME280;29070;48.102;-1.652;2022-11-20T19:05:13;101228.44;;;9.18;75.71
39949;BME280;29070;48.102;-1.652;2022-11-20T19:10:17;101227.63;;;9.18;75.59
39949;BME280;29070;48.102;-1.652;2022-11-20T19:15:21;101234.50;;;9.19;75.75
39949;BME280;29070;48.102;-1.652;2022-11-20T19:20:21;101225.66;;;9.20;76.06
39949;BME280;29070;48.102;-1.652;2022-11-20T19:25:22;101222.41;;;9.18;76.03
39949;BME280;29070;48.102;-1.652;2022-11-20T19:30:22;101232.41;;;9.14;75.92
39949;BME280;29070;48.102;-1.652;2022-11-20T19:35:23;101223.88;;;9.12;76.25
39949;BME280;29070;48.102;-1.652;2022-11-20T19:40:24;101225.69;;;9.11;76.59
39949;BME280;29070;48.102;-1.652;2022-11-20T19:45:24;101226.69;;;9.10;76.29
39949;BME280;29070;48.102;-1.652;2022-11-20T19:50:25;101223.41;;;9.08;76.59
39949;BME280;29070;48.102;-1.652;2022-11-20T19:55:25;101225.84;;;9.10;76.54
39949;BME280;29070;48.102;-1.652;2022-11-20T20:00:26;101234.72;;;9.09;76.59
39949;BME280;29070;48.102;-1.652;2022-11-20T20:05:26;101239.13;;;9.08;76.87
39949;BME280;29070;48.102;-1.652;2022-11-20T20:10:26;101230.63;;;9.06;76.80
39949;BME280;29070;48.102;-1.652;2022-11-20T20:15:27;101226.56;;;9.04;77.07
39949;BME280;29070;48.102;-1.652;2022-11-20T20:20:29;101240.28;;;9.06;76.82
39949;BME280;29070;48.102;-1.652;2022-11-20T20:25:29;101221.50;;;9.02;77.31
39949;BME280;29070;48.102;-1.652;2022-11-20T20:30:30;101216.44;;;9.01;77.04
39949;BME280;29070;48.102;-1.652;2022-11-20T20:35:30;101215.16;;;8.96;76.95
39949;BME280;29070;48.102;-1.652;2022-11-20T20:40:30;101204.72;;;8.88;76.99
39949;BME280;29070;48.102;-1.652;2022-11-20T20:45:31;101201.63;;;8.85;77.00
39949;BME280;29070;48.102;-1.652;2022-11-20T20:50:31;101207.19;;;8.82;76.91
39949;BME280;29070;48.102;-1.652;2022-11-20T20:55:32;101203.28;;;8.77;77.34
39949;BME280;29070;48.102;-1.652;2022-11-20T21:00:33;101194.31;;;8.72;77.52
39949;BME280;29070;48.102;-1.652;2022-11-20T21:05:33;101182.41;;;8.69;77.73
39949;BME280;29070;48.102;-1.652;2022-11-20T21:10:34;101183.38;;;8.68;77.54
39949;BME280;29070;48.102;-1.652;2022-11-20T21:15:37;101181.72;;;8.67;77.85
39949;BME280;29070;48.102;-1.652;2022-11-20T21:20:38;101183.72;;;8.65;77.69
39949;BME280;29070;48.102;-1.652;2022-11-20T21:26:09;101179.81;;;8.61;77.83
39949;BME280;29070;48.102;-1.652;2022-11-20T21:31:12;101182.75;;;8.58;77.83
39949;BME280;29070;48.102;-1.652;2022-11-20T21:36:16;101176.25;;;8.54;77.77
39949;BME280;29070;48.102;-1.652;2022-11-20T21:41:17;101180.38;;;8.48;77.82
39949;BME280;29070;48.102;-1.652;2022-11-20T21:46:17;101163.84;;;8.39;77.88
39949;BME280;29070;48.102;-1.652;2022-11-20T21:51:19;101158.47;;;8.33;78.06
39949;BME280;29070;48.102;-1.652;2022-11-20T21:56:23;101150.16;;;8.29;77.76
39949;BME280;29070;48.102;-1.652;2022-11-20T22:01:28;101143.63;;;8.25;78.05
39949;BME280;29070;48.102;-1.652;2022-11-20T22:06:30;101142.69;;;8.18;78.26
39949;BME280;29070;48.102;-1.652;2022-11-20T22:11:31;101130.25;;;8.12;77.75
39949;BME280;29070;48.102;-1.652;2022-11-20T22:16:33;101129.97;;;8.07;78.22
39949;BME280;29070;48.102;-1.652;2022-11-20T22:21:34;101113.81;;;8.03;78.34
39949;BME280;29070;48.102;-1.652;2022-11-20T22:26:35;101115.97;;;7.91;77.92
39949;BME280;29070;48.102;-1.652;2022-11-20T22:31:35;101105.50;;;7.83;78.06
39949;BME280;29070;48.102;-1.652;2022-11-20T22:36:36;101115.66;;;7.78;78.01
39949;BME280;29070;48.102;-1.652;2022-11-20T22:41:36;101105.88;;;7.72;78.28
39949;BME280;29070;48.102;-1.652;2022-11-20T22:46:37;101111.78;;;7.66;78.02
39949;BME280;29070;48.102;-1.652;2022-11-20T22:51:39;101087.94;;;7.60;77.93
39949;BME280;29070;48.102;-1.652;2022-11-20T22:56:40;101075.38;;;7.56;78.08
39949;BME280;29070;48.102;-1.652;2022-11-20T23:01:40;101064.44;;;7.52;78.20
39949;BME280;29070;48.102;-1.652;2022-11-20T23:06:41;101051.69;;;7.49;78.61
39949;BME280;29070;48.102;-1.652;2022-11-20T23:11:41;101041.09;;;7.51;78.83
39949;BME280;29070;48.102;-1.652;2022-11-20T23:16:41;101035.06;;;7.50;79.07
39949;BME280;29070;48.102;-1.652;2022-11-20T23:21:42;101037.03;;;7.48;79.04
39949;BME280;29070;48.102;-1.652;2022-11-20T23:26:42;101028.88;;;7.43;78.77
39949;BME280;29070;48.102;-1.652;2022-11-20T23:31:44;101024.31;;;7.37;78.79
39949;BME280;29070;48.102;-1.652;2022-11-20T23:36:44;101012.06;;;7.29;78.99
39949;BME280;29070;48.102;-1.652;2022-11-20T23:41:44;101009.78;;;7.26;78.71
39949;BME280;29070;48.102;-1.652;2022-11-20T23:46:45;100996.56;;;7.28;79.00
39949;BME280;29070;48.102;-1.652;2022-11-20T23:51:45;100979.94;;;7.29;79.08
39949;BME280;29070;48.102;-1.652;2022-11-20T23:56:45;100976.69;;;7.27;79.08
